Time;durP1;ratioP1;P1;durP2;ratioP2;P2;SDS_P1;SDS_P2;PMS_P1;PMS_P2;Temp;Humidity;BMP_temperature;BMP_pressure;BME280_temperature;BME280_humidity;BME280_pressure;Samples;Min_cycle;Max_cycle;Signal;HPM_P1;HPM_P2
2022/02/12 00:02:26;;;;;;;9.48;2.67;;;-0.40;99.90;;;;;;10381748;28;20053;-63
2022/02/12 00:07:27;;;;;;;9.15;2.50;;;-0.50;99.90;;;;;;10389386;28;20054;-63
2022/02/12 00:12:29;;;;;;;9.30;3.90;;;-0.50;99.90;;;;;;10379903;28;20495;-63
2022/02/12 00:17:31;;;;;;;10.10;3.10;;;-0.50;99.90;;;;;;10384262;28;20046;-62
2022/02/12 00:22:33;;;;;;;14.30;2.83;;;-0.60;99.90;;;;;;10381179;28;20053;-63
2022/02/12 00:27:35;;;;;;;8.98;2.60;;;-0.60;99.90;;;;;;10384131;28;20045;-63
2022/02/12 00:32:37;;;;;;;6.95;2.05;;;-0.70;99.90;;;;;;10385072;28;20095;-62
2022/02/12 00:37:38;;;;;;;8.57;3.20;;;-0.70;99.90;;;;;;10384312;28;20481;-63
2022/02/12 00:42:40;;;;;;;10.85;3.95;;;-0.80;99.90;;;;;;10382877;28;20057;-63
2022/02/12 00:47:42;;;;;;;8.02;2.42;;;-0.80;99.90;;;;;;10384203;28;20548;-62
2022/02/12 00:52:43;;;;;;;10.88;2.60;;;-0.90;99.90;;;;;;10385455;28;20139;-62
2022/02/12 00:57:45;;;;;;;7.32;2.28;;;-0.90;99.90;;;;;;10379105;28;20656;-62
2022/02/12 01:02:47;;;;;;;6.65;2.00;;;-0.90;99.90;;;;;;10379565;28;20447;-62
2022/02/12 01:07:48;;;;;;;9.55;2.05;;;-1.00;99.90;;;;;;10378629;28;20465;-63
2022/02/12 01:12:50;;;;;;;7.60;1.13;;;-1.00;99.90;;;;;;10382571;28;20459;-62
2022/02/12 01:17:52;;;;;;;6.57;1.77;;;-1.00;99.90;;;;;;10381500;28;20157;-62
2022/02/12 01:22:54;;;;;;;5.47;1.85;;;-1.00;99.90;;;;;;10383634;28;20041;-62
2022/02/12 01:27:55;;;;;;;8.85;1.52;;;-1.00;99.90;;;;;;10382402;28;20053;-63
2022/02/12 01:32:58;;;;;;;4.47;0.98;;;-1.00;99.90;;;;;;10380817;28;20484;-63
2022/02/12 01:38:00;;;;;;;6.32;1.50;;;-1.10;99.90;;;;;;10385498;28;20111;-62
2022/02/12 01:43:02;;;;;;;5.45;1.20;;;-1.10;99.90;;;;;;10386716;28;20102;-62
2022/02/12 01:48:04;;;;;;;10.25;1.88;;;-1.10;99.90;;;;;;10388637;28;20068;-63
2022/02/12 01:53:06;;;;;;;6.40;1.60;;;-1.10;99.90;;;;;;10391495;28;20107;-62
2022/02/12 01:58:09;;;;;;;6.65;1.73;;;-1.20;99.90;;;;;;10394013;28;20123;-63
2022/02/12 02:03:12;;;;;;;8.38;1.83;;;-1.20;99.90;;;;;;10385939;28;20488;-63
2022/02/12 02:08:14;;;;;;;5.03;1.50;;;-1.30;99.90;;;;;;10386671;28;20045;-62
2022/02/12 02:13:26;;;;;;;6.13;1.55;;;-1.30;99.90;;;;;;10386187;28;20081;-62
2022/02/12 02:18:28;;;;;;;10.45;1.45;;;-1.30;99.90;;;;;;10378505;28;20103;-62
2022/02/12 02:23:30;;;;;;;4.38;1.17;;;-1.30;99.90;;;;;;10388203;28;20128;-63
2022/02/12 02:28:32;;;;;;;5.43;1.65;;;-1.40;99.90;;;;;;10389081;28;20049;-63
2022/02/12 02:33:34;;;;;;;11.77;1.90;;;-1.40;99.90;;;;;;10387337;28;20133;-62
2022/02/12 02:38:36;;;;;;;11.50;2.63;;;-1.40;99.90;;;;;;10380686;28;20095;-62
2022/02/12 02:43:40;;;;;;;12.25;1.80;;;-1.50;99.90;;;;;;10386316;28;20050;-62
2022/02/12 02:48:49;;;;;;;5.80;1.15;;;-1.50;99.90;;;;;;10390165;28;20111;-62
2022/02/12 02:59:11;;;;;;;10.95;3.00;;;-1.50;99.90;;;;;;10391074;28;20057;-62
2022/02/12 03:04:13;;;;;;;11.38;4.07;;;-1.50;99.90;;;;;;10384811;28;20045;-62
2022/02/12 03:09:15;;;;;;;7.60;3.33;;;-1.60;99.90;;;;;;10387298;28;20176;-63
2022/02/12 03:14:16;;;;;;;9.60;2.92;;;-1.60;99.90;;;;;;10383880;28;20077;-63
2022/02/12 03:19:18;;;;;;;7.15;2.63;;;-1.60;99.90;;;;;;10385359;28;20059;-63
2022/02/12 03:24:19;;;;;;;6.15;2.40;;;-1.60;99.90;;;;;;10389588;28;20077;-62
2022/02/12 03:29:22;;;;;;;6.72;2.22;;;-1.70;99.90;;;;;;10377396;28;20489;-63
2022/02/12 03:34:23;;;;;;;10.60;1.95;;;-1.70;99.90;;;;;;10385919;28;20666;-62
2022/02/12 03:39:25;;;;;;;9.45;2.13;;;-1.80;99.90;;;;;;10389868;28;20091;-63
2022/02/12 03:44:27;;;;;;;10.25;2.00;;;-1.80;99.90;;;;;;10381882;28;20242;-62
2022/02/12 03:49:29;;;;;;;5.53;1.52;;;-1.80;99.90;;;;;;10382696;28;20051;-63
2022/02/12 03:54:30;;;;;;;7.90;2.15;;;-1.90;99.90;;;;;;10384944;28;20100;-63
2022/02/12 03:59:32;;;;;;;7.57;1.73;;;-1.90;99.90;;;;;;10381523;28;20123;-63
2022/02/12 04:04:34;;;;;;;4.85;1.55;;;-1.90;99.90;;;;;;10380581;28;20108;-62
2022/02/12 04:09:35;;;;;;;6.50;1.60;;;-1.90;99.90;;;;;;10385143;28;20468;-63
2022/02/12 04:14:37;;;;;;;4.10;1.33;;;-1.90;99.90;;;;;;10385993;28;20103;-62
2022/02/12 04:19:39;;;;;;;10.93;1.40;;;-1.90;99.90;;;;;;10384742;28;20045;-63
2022/02/12 04:24:40;;;;;;;8.82;1.30;;;-1.90;99.90;;;;;;10381605;28;20122;-62
2022/02/12 04:29:42;;;;;;;13.60;1.77;;;-1.90;99.90;;;;;;10384026;28;20128;-63
2022/02/12 04:34:44;;;;;;;2.03;1.05;;;-1.90;99.90;;;;;;10384406;28;20049;-63
2022/02/12 04:39:46;;;;;;;9.43;1.23;;;-1.90;99.90;;;;;;10381101;28;20107;-63
2022/02/12 04:44:50;;;;;;;11.25;1.42;;;-2.00;99.90;;;;;;10385336;28;20216;-63
2022/02/12 04:49:51;;;;;;;6.45;1.20;;;-2.00;99.90;;;;;;10383793;28;20976;-62
2022/02/12 04:54:53;;;;;;;8.40;0.80;;;-2.00;99.90;;;;;;10381373;28;20061;-63
2022/02/12 04:59:55;;;;;;;7.47;1.10;;;-2.00;99.90;;;;;;10380487;28;20081;-63
2022/02/12 05:04:56;;;;;;;7.07;1.00;;;-2.00;99.90;;;;;;10377063;28;20057;-63
2022/02/12 05:09:58;;;;;;;13.25;2.97;;;-2.10;99.90;;;;;;10380292;28;20460;-62
2022/02/12 05:15:00;;;;;;;21.33;4.93;;;-2.10;99.90;;;;;;10382692;28;20175;-62
2022/02/12 05:20:03;;;;;;;10.60;3.22;;;-2.10;99.90;;;;;;10377557;28;20077;-62
2022/02/12 05:25:07;;;;;;;43.35;14.52;;;-2.10;99.90;;;;;;10382669;28;20060;-63
2022/02/12 05:30:09;;;;;;;27.42;9.93;;;-2.20;99.90;;;;;;10376914;28;20134;-62
2022/02/12 05:35:11;;;;;;;11.50;2.83;;;-2.20;99.90;;;;;;10376950;28;20080;-63
2022/02/12 05:40:13;;;;;;;7.10;1.77;;;-2.20;99.90;;;;;;10382406;28;20033;-62
2022/02/12 05:45:14;;;;;;;5.93;1.55;;;-2.20;99.90;;;;;;10380495;28;20049;-62
2022/02/12 05:50:16;;;;;;;4.30;1.88;;;-2.20;99.90;;;;;;10380121;28;20123;-62
2022/02/12 05:55:18;;;;;;;6.47;1.67;;;-2.30;99.90;;;;;;10385369;28;20072;-62
2022/02/12 06:00:19;;;;;;;4.68;1.23;;;-2.30;99.90;;;;;;10380304;28;20126;-63
2022/02/12 06:05:21;;;;;;;4.13;1.50;;;-2.30;99.90;;;;;;10374723;28;20045;-62
2022/02/12 06:10:28;;;;;;;4.13;1.25;;;-2.30;99.90;;;;;;10381790;28;20459;-62
2022/02/12 06:15:30;;;;;;;5.28;1.83;;;-2.40;99.90;;;;;;10376836;28;20408;-61
2022/02/12 06:20:32;;;;;;;15.23;4.32;;;-2.40;99.90;;;;;;10377306;28;20095;-62
2022/02/12 06:25:34;;;;;;;8.52;2.42;;;-2.40;99.90;;;;;;10380905;28;20057;-62
2022/02/12 06:30:35;;;;;;;8.48;2.45;;;-2.40;99.90;;;;;;10391108;28;20571;-61
2022/02/12 06:35:37;;;;;;;4.82;2.67;;;-2.40;99.90;;;;;;10388124;28;20049;-62
2022/02/12 06:40:39;;;;;;;7.93;1.67;;;-2.50;99.90;;;;;;10381079;28;20046;-63
2022/02/12 06:45:40;;;;;;;3.65;1.27;;;-2.40;99.90;;;;;;10384427;28;20056;-63
2022/02/12 06:50:42;;;;;;;4.88;2.03;;;-2.40;99.90;;;;;;10381049;28;20077;-63
2022/02/12 06:55:44;;;;;;;7.90;1.63;;;-2.40;99.90;;;;;;10384286;28;20053;-64
2022/02/12 07:00:45;;;;;;;5.85;2.20;;;-2.40;99.90;;;;;;10387768;28;20069;-63
2022/02/12 07:05:47;;;;;;;7.85;1.75;;;-2.40;99.90;;;;;;10384913;28;20065;-63
2022/02/12 07:10:49;;;;;;;8.57;2.00;;;-2.40;99.90;;;;;;10386752;28;20664;-64
2022/02/12 07:15:50;;;;;;;7.70;2.25;;;-2.30;99.90;;;;;;10382365;28;20123;-64
2022/02/12 07:20:52;;;;;;;8.23;2.78;;;-2.20;99.90;;;;;;10384785;28;20484;-64
2022/02/12 07:25:54;;;;;;;9.23;2.63;;;-2.10;99.90;;;;;;10381523;28;20038;-64
2022/02/12 07:30:56;;;;;;;13.38;4.00;;;-2.10;99.90;;;;;;10387546;28;20042;-64
2022/02/12 07:35:57;;;;;;;11.35;3.80;;;-2.00;99.90;;;;;;10390580;28;20049;-64
2022/02/12 07:41:00;;;;;;;11.52;4.40;;;-1.90;99.90;;;;;;10386478;28;20057;-64
2022/02/12 07:46:02;;;;;;;12.52;4.25;;;-1.90;99.90;;;;;;10382509;28;20041;-64
2022/02/12 07:51:04;;;;;;;12.93;3.95;;;-1.80;99.90;;;;;;10384461;28;20052;-64
2022/02/12 07:56:06;;;;;;;11.00;3.60;;;-1.60;99.90;;;;;;10384187;28;20053;-65
2022/02/12 08:01:14;;;;;;;17.00;4.93;;;-1.60;99.90;;;;;;10379263;28;20048;-65
2022/02/12 08:11:40;;;;;;;11.82;3.90;;;-1.30;99.90;;;;;;10378487;28;20128;-65
2022/02/12 08:16:42;;;;;;;9.50;4.00;;;-1.20;99.90;;;;;;10380661;28;20450;-64
2022/02/12 08:21:43;;;;;;;18.85;5.10;;;-1.10;99.90;;;;;;10377384;28;20107;-64
2022/02/12 08:26:46;;;;;;;12.75;5.07;;;-0.90;99.90;;;;;;10378585;28;20659;-65
2022/02/12 08:31:48;;;;;;;18.67;5.13;;;-0.80;99.90;;;;;;10384336;28;20049;-64
2022/02/12 08:36:53;;;;;;;13.85;5.43;;;-0.60;99.90;;;;;;10381330;28;20061;-64
2022/02/12 08:41:55;;;;;;;12.80;5.13;;;-0.40;99.90;;;;;;10381917;28;20049;-65
2022/02/12 08:46:56;;;;;;;19.42;5.88;;;-0.30;99.90;;;;;;10385240;28;20057;-65
2022/02/12 08:51:58;;;;;;;13.88;4.72;;;-0.10;99.90;;;;;;10376324;28;20045;-65
2022/02/12 08:57:00;;;;;;;13.75;4.53;;;0.10;99.90;;;;;;10379480;28;20073;-65
2022/02/12 09:02:02;;;;;;;8.43;4.03;;;0.30;99.90;;;;;;10380286;28;20057;-65
2022/02/12 09:07:05;;;;;;;13.95;3.28;;;0.40;99.90;;;;;;10381106;28;20107;-65
2022/02/12 09:12:06;;;;;;;11.23;2.83;;;0.60;99.90;;;;;;10378833;28;20056;-65
2022/02/12 09:17:09;;;;;;;9.98;1.70;;;0.80;99.90;;;;;;10379773;28;20124;-65
2022/02/12 09:22:11;;;;;;;7.57;1.67;;;0.90;99.90;;;;;;10380452;28;20068;-65
2022/02/12 09:27:13;;;;;;;6.40;1.80;;;1.20;99.90;;;;;;10374143;28;20046;-65
2022/02/12 09:32:17;;;;;;;10.65;2.17;;;1.30;99.90;;;;;;10377723;28;20057;-65
2022/02/12 09:37:19;;;;;;;13.85;2.33;;;1.40;99.90;;;;;;10383642;28;20843;-65
2022/02/12 09:42:21;;;;;;;4.65;1.30;;;1.60;99.90;;;;;;10379500;28;20069;-65
2022/02/12 09:47:41;;;;;;;12.18;2.75;;;1.70;99.90;;;;;;10381295;28;20045;-65
2022/02/12 09:52:47;;;;;;;9.02;1.20;;;1.90;99.90;;;;;;10380601;28;20500;-65
2022/02/12 09:57:49;;;;;;;4.38;1.08;;;2.00;99.90;;;;;;10385227;28;20049;-65
2022/02/12 10:02:54;;;;;;;7.13;1.52;;;2.10;99.90;;;;;;10367727;28;20069;-65
2022/02/12 10:08:02;;;;;;;7.07;1.70;;;2.20;99.90;;;;;;10386982;28;20081;-65
2022/02/12 10:13:23;;;;;;;7.13;2.88;;;2.30;99.90;;;;;;10390744;28;20069;-65
2022/02/12 10:18:28;;;;;;;14.88;2.20;;;2.40;99.90;;;;;;10392214;28;20045;-66
2022/02/12 10:23:39;;;;;;;6.00;1.95;;;2.50;99.90;;;;;;10402950;28;20045;-66
2022/02/12 10:28:46;;;;;;;6.22;1.48;;;2.60;99.90;;;;;;10387352;28;20120;-66
2022/02/12 10:33:51;;;;;;;4.97;2.10;;;2.80;99.90;;;;;;10378667;28;20069;-65
2022/02/12 10:38:55;;;;;;;7.05;1.63;;;3.00;99.90;;;;;;10380206;28;20053;-65
2022/02/12 10:43:58;;;;;;;5.60;1.58;;;3.20;99.90;;;;;;10393083;28;20103;-65
2022/02/12 10:49:01;;;;;;;3.17;1.50;;;3.30;99.90;;;;;;10386768;28;20045;-65
2022/02/12 10:54:06;;;;;;;6.97;1.40;;;3.50;99.90;;;;;;10385426;28;20484;-65
2022/02/12 10:59:08;;;;;;;2.65;1.23;;;3.70;99.90;;;;;;10387634;28;20447;-65
2022/02/12 11:04:14;;;;;;;6.28;1.73;;;4.00;98.40;;;;;;10382391;28;20038;-65
2022/02/12 11:09:18;;;;;;;8.18;1.67;;;4.20;96.60;;;;;;10381929;28;20138;-65
2022/02/12 11:14:22;;;;;;;2.95;1.50;;;4.50;95.00;;;;;;10382234;28;20041;-65
2022/02/12 11:19:25;;;;;;;7.15;1.23;;;4.70;92.90;;;;;;10380379;28;20093;-66
2022/02/12 11:24:41;;;;;;;5.10;1.67;;;4.90;92.10;;;;;;10381672;28;20147;-66
2022/02/12 11:29:44;;;;;;;5.68;1.20;;;5.10;91.10;;;;;;10383560;28;20080;-65
2022/02/12 11:35:09;;;;;;;4.07;1.45;;;5.20;90.20;;;;;;10387523;28;20381;-65
2022/02/12 11:40:17;;;;;;;5.45;0.98;;;5.30;89.30;;;;;;10380968;28;20049;-65
2022/02/12 11:45:29;;;;;;;6.63;0.88;;;5.50;87.60;;;;;;10380059;28;20044;-65
2022/02/12 11:51:02;;;;;;;4.50;1.00;;;5.60;86.20;;;;;;10381403;28;20057;-64
2022/02/12 11:56:19;;;;;;;4.18;1.05;;;5.70;85.20;;;;;;10380084;28;20096;-65
2022/02/12 12:01:35;;;;;;;3.17;1.00;;;5.90;84.50;;;;;;10384438;28;20081;-65
2022/02/12 12:06:39;;;;;;;9.43;0.70;;;6.00;83.90;;;;;;10388024;28;20084;-62
2022/02/12 12:12:01;;;;;;;7.32;0.95;;;6.10;82.30;;;;;;10382931;28;20151;-63
2022/02/12 12:17:03;;;;;;;5.93;0.90;;;6.10;81.00;;;;;;10381659;28;20045;-65
2022/02/12 12:22:08;;;;;;;1.33;0.80;;;6.20;79.50;;;;;;10388718;28;20107;-66
2022/02/12 12:27:14;;;;;;;3.25;0.63;;;6.50;79.10;;;;;;10376363;28;20519;-66
2022/02/12 12:32:21;;;;;;;8.20;1.03;;;6.40;77.80;;;;;;10375900;28;20149;-66
2022/02/12 12:37:25;;;;;;;3.00;0.60;;;6.60;76.70;;;;;;10386052;28;20073;-66
2022/02/12 12:42:31;;;;;;;1.00;0.55;;;6.70;75.00;;;;;;10383159;28;20045;-66
2022/02/12 12:47:33;;;;;;;2.42;0.50;;;6.80;74.70;;;;;;10384662;28;20042;-66
2022/02/12 12:52:35;;;;;;;1.35;0.45;;;6.90;74.40;;;;;;10381612;28;20077;-66
2022/02/12 12:57:43;;;;;;;2.50;0.82;;;7.00;73.30;;;;;;10379906;28;20073;-64
2022/02/12 13:02:54;;;;;;;4.57;3.72;;;7.20;72.40;;;;;;9950998;28;20151;-64
2022/02/12 13:08:04;;;;;;;1.60;0.40;;;7.30;70.40;;;;;;10059223;28;20041;-64
2022/02/12 13:13:13;;;;;;;3.55;0.55;;;7.30;69.40;;;;;;10379414;28;20049;-65
2022/02/12 13:18:17;;;;;;;1.85;0.40;;;7.50;70.20;;;;;;10385118;28;20045;-66
2022/02/12 13:23:20;;;;;;;6.78;0.95;;;7.30;68.10;;;;;;10378094;28;20077;-64
2022/02/12 13:28:23;;;;;;;2.40;0.50;;;7.40;68.10;;;;;;10384449;28;20080;-64
2022/02/12 13:33:28;;;;;;;1.00;0.35;;;7.70;69.40;;;;;;10378367;28;20056;-64
2022/02/12 13:38:34;;;;;;;2.83;0.55;;;7.80;66.90;;;;;;10387852;28;20056;-64
2022/02/12 13:43:47;;;;;;;3.10;0.45;;;7.80;64.20;;;;;;10391688;28;20049;-65
2022/02/12 13:48:49;;;;;;;2.38;0.50;;;8.00;64.10;;;;;;10391331;28;21328;-65
2022/02/12 13:53:55;;;;;;;1.70;0.40;;;7.80;65.10;;;;;;10342459;28;20878;-65
2022/02/12 13:58:57;;;;;;;5.07;0.50;;;7.70;65.60;;;;;;10385425;28;20081;-65
2022/02/12 14:03:58;;;;;;;0.93;0.32;;;7.80;65.60;;;;;;10387956;28;20696;-65
2022/02/12 14:09:00;;;;;;;2.55;0.40;;;7.90;65.70;;;;;;10387511;28;20128;-65
2022/02/12 14:14:06;;;;;;;1.52;0.30;;;8.10;65.10;;;;;;10386329;28;20042;-65
2022/02/12 14:19:08;;;;;;;1.63;0.40;;;8.20;65.40;;;;;;10389981;28;20040;-65
2022/02/12 14:24:10;;;;;;;2.28;0.40;;;8.30;66.10;;;;;;10387145;28;20411;-64
2022/02/12 14:29:11;;;;;;;3.03;0.40;;;8.20;65.40;;;;;;10387914;28;20107;-64
2022/02/12 14:34:13;;;;;;;2.70;0.50;;;8.30;64.60;;;;;;10384501;28;20123;-64
2022/02/12 14:39:15;;;;;;;4.45;0.70;;;8.20;65.30;;;;;;10386331;28;20075;-65
2022/02/12 14:44:16;;;;;;;1.63;0.50;;;8.20;65.10;;;;;;10389170;28;20689;-62
2022/02/12 14:49:18;;;;;;;1.60;0.95;;;8.30;64.20;;;;;;10392935;28;20460;-62
2022/02/12 14:54:21;;;;;;;2.55;0.50;;;8.20;64.90;;;;;;10387836;28;20068;-65
2022/02/12 14:59:22;;;;;;;2.30;1.10;;;8.20;64.70;;;;;;10384404;28;20073;-64
2022/02/12 15:04:24;;;;;;;2.60;1.00;;;8.20;65.70;;;;;;10391592;28;20057;-64
2022/02/12 15:09:26;;;;;;;2.00;0.60;;;8.00;67.00;;;;;;10385769;28;20138;-65
2022/02/12 15:14:28;;;;;;;2.80;0.70;;;8.10;66.20;;;;;;10379380;28;20228;-65
2022/02/12 15:19:30;;;;;;;2.13;0.60;;;8.00;66.10;;;;;;10385852;28;20604;-65
2022/02/12 15:24:32;;;;;;;2.67;0.60;;;7.90;67.20;;;;;;10387030;28;20488;-65
2022/02/12 15:29:33;;;;;;;2.08;0.60;;;7.70;67.70;;;;;;10386613;28;20077;-65
2022/02/12 15:34:35;;;;;;;2.17;0.80;;;7.60;68.50;;;;;;10389434;28;20049;-65
2022/02/12 15:39:37;;;;;;;1.52;0.73;;;7.50;69.00;;;;;;10378053;28;20836;-65
2022/02/12 15:44:41;;;;;;;3.70;0.70;;;7.40;69.50;;;;;;10382051;28;20073;-65
2022/02/12 15:49:49;;;;;;;2.17;0.85;;;7.30;70.30;;;;;;10387348;28;21699;-65
2022/02/12 15:54:51;;;;;;;6.72;1.20;;;7.20;70.70;;;;;;10374716;28;20050;-65
2022/02/12 15:59:52;;;;;;;2.10;0.82;;;7.10;71.70;;;;;;10382900;28;20073;-65
2022/02/12 16:04:54;;;;;;;3.60;0.70;;;6.90;72.00;;;;;;10384612;28;20045;-66
2022/02/12 16:09:56;;;;;;;2.78;0.88;;;6.80;72.90;;;;;;10387978;28;20053;-66
2022/02/12 16:14:57;;;;;;;5.50;1.35;;;6.70;73.70;;;;;;10380504;28;20057;-66
2022/02/12 16:19:59;;;;;;;9.20;2.63;;;6.50;74.50;;;;;;10384167;28;20056;-66
2022/02/12 16:25:01;;;;;;;7.05;2.83;;;6.40;74.30;;;;;;10384473;28;20049;-66
2022/02/12 16:30:05;;;;;;;6.63;2.03;;;6.20;75.60;;;;;;10381005;28;20061;-67
2022/02/12 16:35:07;;;;;;;4.57;1.55;;;6.10;76.20;;;;;;10380364;28;20036;-68
2022/02/12 16:40:10;;;;;;;4.38;1.50;;;5.80;76.70;;;;;;10376646;28;20072;-66
2022/02/12 16:45:12;;;;;;;6.32;2.97;;;5.70;77.30;;;;;;10381477;28;20501;-67
2022/02/12 16:50:14;;;;;;;6.03;2.35;;;5.50;78.20;;;;;;10367316;28;20061;-67
2022/02/12 16:55:16;;;;;;;5.90;2.38;;;5.40;78.80;;;;;;10384474;28;20045;-67
2022/02/12 17:00:17;;;;;;;6.22;2.42;;;5.20;79.90;;;;;;10382273;28;20103;-67
2022/02/12 17:05:23;;;;;;;5.90;2.80;;;5.10;81.30;;;;;;10369733;28;20053;-66
2022/02/12 17:10:25;;;;;;;11.93;4.07;;;4.80;82.00;;;;;;10382255;28;20053;-66
2022/02/12 17:15:26;;;;;;;14.00;3.20;;;4.60;83.70;;;;;;10385204;28;20139;-67
2022/02/12 17:20:28;;;;;;;10.27;2.92;;;4.50;85.20;;;;;;10376961;28;20050;-66
2022/02/12 17:25:30;;;;;;;7.90;2.45;;;4.30;86.10;;;;;;10385262;28;20496;-64
2022/02/12 17:30:32;;;;;;;8.00;2.30;;;4.20;87.10;;;;;;10377526;28;20053;-63
2022/02/12 17:35:39;;;;;;;7.65;1.65;;;4.10;88.10;;;;;;10381935;28;20484;-65
2022/02/12 17:40:40;;;;;;;6.90;2.88;;;4.00;89.30;;;;;;10376903;28;20054;-64
2022/02/12 17:45:42;;;;;;;10.95;4.10;;;3.90;90.30;;;;;;10381323;28;20046;-64
2022/02/12 17:50:44;;;;;;;7.40;3.97;;;3.70;91.00;;;;;;10388850;28;20412;-64
2022/02/12 17:55:46;;;;;;;9.23;3.55;;;3.50;91.90;;;;;;10375927;28;20049;-64
2022/02/12 18:00:48;;;;;;;9.27;3.33;;;3.40;93.30;;;;;;10374270;28;20111;-64
2022/02/12 18:05:50;;;;;;;11.05;3.75;;;3.20;95.00;;;;;;10383107;28;20584;-64
2022/02/12 18:10:54;;;;;;;7.90;3.47;;;3.10;96.50;;;;;;10384826;28;20498;-64
2022/02/12 18:15:56;;;;;;;10.57;4.68;;;2.90;97.60;;;;;;10379413;28;20053;-64
2022/02/12 18:20:57;;;;;;;9.38;4.28;;;2.80;99.10;;;;;;10382405;28;20056;-64
2022/02/12 18:25:59;;;;;;;9.40;4.60;;;2.70;99.90;;;;;;10390704;28;20549;-65
2022/02/12 18:31:01;;;;;;;11.50;4.68;;;2.60;99.90;;;;;;10383341;28;20345;-64
2022/02/12 18:36:03;;;;;;;14.25;6.35;;;2.50;99.90;;;;;;10387012;28;20041;-65
2022/02/12 18:41:05;;;;;;;15.82;6.75;;;2.40;99.90;;;;;;10383366;28;20041;-65
2022/02/12 18:46:08;;;;;;;16.17;6.50;;;2.30;99.90;;;;;;10388840;28;20053;-65
2022/02/12 18:51:10;;;;;;;16.42;6.03;;;2.20;99.90;;;;;;10386890;28;20135;-64
2022/02/12 18:56:13;;;;;;;14.82;6.30;;;2.10;99.90;;;;;;10393884;28;20042;-64
2022/02/12 19:01:16;;;;;;;14.93;6.20;;;2.00;99.90;;;;;;10381289;28;20041;-65
2022/02/12 19:06:19;;;;;;;18.33;6.32;;;1.80;99.90;;;;;;10388736;28;20073;-65
2022/02/12 19:11:22;;;;;;;18.90;6.30;;;1.70;99.90;;;;;;10386719;28;20049;-64
2022/02/12 19:16:26;;;;;;;17.60;6.43;;;1.60;99.90;;;;;;10382460;28;20050;-64
2022/02/12 19:21:28;;;;;;;23.65;6.70;;;1.50;99.90;;;;;;10385322;28;20053;-64
2022/02/12 19:26:31;;;;;;;32.30;10.95;;;1.40;99.90;;;;;;10381856;28;20405;-64
2022/02/12 19:31:34;;;;;;;19.63;6.75;;;1.30;99.90;;;;;;10385100;28;20408;-63
2022/02/12 19:36:37;;;;;;;14.38;5.68;;;1.20;99.90;;;;;;10379466;28;20126;-63
2022/02/12 19:41:42;;;;;;;18.98;5.32;;;1.10;99.90;;;;;;10386347;28;20060;-63
2022/02/12 19:46:44;;;;;;;22.13;6.57;;;0.90;99.90;;;;;;10373824;28;20111;-63
2022/02/12 19:51:47;;;;;;;35.38;12.23;;;0.80;99.90;;;;;;10386555;28;20045;-63
2022/02/12 19:56:49;;;;;;;21.48;6.72;;;0.70;99.90;;;;;;10382387;28;20053;-63
2022/02/12 20:01:52;;;;;;;22.58;7.97;;;0.60;99.90;;;;;;10386175;28;20076;-63
2022/02/12 20:06:55;;;;;;;61.65;22.83;;;0.50;99.90;;;;;;10379087;28;20055;-64
2022/02/12 20:11:58;;;;;;;31.63;10.05;;;0.40;99.90;;;;;;10381570;28;20107;-64
2022/02/12 20:17:01;;;;;;;15.57;5.70;;;0.40;99.90;;;;;;10382767;28;20049;-64
2022/02/12 20:22:04;;;;;;;16.85;6.18;;;0.30;99.90;;;;;;10382495;28;20049;-64
2022/02/12 20:27:07;;;;;;;14.05;6.50;;;0.20;99.90;;;;;;10388802;28;20641;-64
2022/02/12 20:32:09;;;;;;;18.52;6.80;;;0.20;99.90;;;;;;10381686;28;20103;-65
2022/02/12 20:37:13;;;;;;;16.95;6.10;;;0.20;99.90;;;;;;10392353;28;20522;-64
2022/02/12 20:42:15;;;;;;;15.32;6.68;;;0.10;99.90;;;;;;10378066;28;20519;-64
2022/02/12 20:47:19;;;;;;;22.13;7.90;;;0.10;99.90;;;;;;10381094;28;20175;-64
2022/02/12 20:52:21;;;;;;;19.77;8.07;;;0.00;99.90;;;;;;10380288;28;20076;-64
2022/02/12 20:57:25;;;;;;;30.95;10.65;;;-0.10;99.90;;;;;;10382354;28;20057;-64
2022/02/12 21:02:27;;;;;;;36.50;11.88;;;-0.10;99.90;;;;;;10377227;28;20064;-64
2022/02/12 21:07:32;;;;;;;17.50;7.93;;;-0.20;99.90;;;;;;10382768;28;20045;-64
2022/02/12 21:12:33;;;;;;;24.73;11.70;;;-0.20;99.90;;;;;;10378168;28;20136;-64
2022/02/12 21:17:37;;;;;;;25.80;10.20;;;-0.30;99.90;;;;;;10382766;28;20049;-64
2022/02/12 21:22:38;;;;;;;18.77;9.38;;;-0.30;99.90;;;;;;10378971;28;20623;-64
2022/02/12 21:27:40;;;;;;;19.63;8.05;;;-0.30;99.90;;;;;;10384837;28;20049;-64
2022/02/12 21:32:43;;;;;;;20.20;9.15;;;-0.40;99.90;;;;;;10382992;28;20056;-65
2022/02/12 21:37:44;;;;;;;21.33;8.18;;;-0.40;99.90;;;;;;10383942;28;20077;-64
2022/02/12 21:42:46;;;;;;;21.45;7.65;;;-0.50;99.90;;;;;;10381074;28;20107;-63
2022/02/12 21:47:48;;;;;;;20.00;7.97;;;-0.50;99.90;;;;;;10385964;28;20317;-64
2022/02/12 21:52:49;;;;;;;20.60;8.52;;;-0.60;99.90;;;;;;10378507;28;20095;-66
2022/02/12 21:57:51;;;;;;;26.25;8.73;;;-0.60;99.90;;;;;;10384550;28;20111;-65
2022/02/12 22:02:53;;;;;;;16.55;8.25;;;-0.70;99.90;;;;;;10384040;28;20440;-68
2022/02/12 22:07:55;;;;;;;29.60;10.82;;;-0.70;99.90;;;;;;10385075;28;20104;-64
2022/02/12 22:12:56;;;;;;;23.50;10.80;;;-0.80;99.90;;;;;;10385655;28;20057;-65
2022/02/12 22:17:58;;;;;;;30.58;11.57;;;-0.80;99.90;;;;;;10390716;28;20075;-65
2022/02/12 22:23:00;;;;;;;29.80;12.27;;;-0.90;99.90;;;;;;10387471;28;20107;-65
2022/02/12 22:28:03;;;;;;;29.63;10.55;;;-0.90;99.90;;;;;;10380730;28;20550;-64
2022/02/12 22:33:05;;;;;;;20.58;9.65;;;-0.90;99.90;;;;;;10385536;28;20051;-65
2022/02/12 22:38:06;;;;;;;21.95;8.48;;;-0.90;99.90;;;;;;10391791;28;20448;-65
2022/02/12 22:43:08;;;;;;;18.40;7.47;;;-1.00;99.90;;;;;;10380192;28;20045;-65
2022/02/12 22:48:10;;;;;;;23.77;8.57;;;-1.00;99.90;;;;;;10386763;28;20500;-65
2022/02/12 22:53:11;;;;;;;37.92;14.65;;;-1.00;99.90;;;;;;10385850;28;20560;-63
2022/02/12 22:58:13;;;;;;;75.35;25.83;;;-1.10;99.90;;;;;;10392846;28;20041;-65
2022/02/12 23:03:15;;;;;;;74.60;29.33;;;-1.10;99.90;;;;;;10382581;28;20085;-64
2022/02/12 23:08:17;;;;;;;68.22;27.13;;;-1.10;99.90;;;;;;10386594;28;20144;-64
2022/02/12 23:13:35;;;;;;;78.45;26.25;;;-1.20;99.90;;;;;;10379206;28;20455;-65
2022/02/12 23:18:38;;;;;;;80.20;27.98;;;-1.20;99.90;;;;;;10386217;28;20119;-65
2022/02/12 23:23:40;;;;;;;75.18;26.48;;;-1.20;99.90;;;;;;10389999;28;20080;-69
2022/02/12 23:28:42;;;;;;;78.28;26.45;;;-1.30;99.90;;;;;;10387779;28;20049;-65
2022/02/12 23:33:43;;;;;;;86.95;27.67;;;-1.30;99.90;;;;;;10385451;28;20037;-64
2022/02/12 23:38:46;;;;;;;69.93;24.08;;;-1.30;99.90;;;;;;10387996;28;20657;-64
2022/02/12 23:43:48;;;;;;;56.50;21.40;;;-1.30;99.90;;;;;;10391296;28;20484;-65
2022/02/12 23:48:50;;;;;;;70.72;29.23;;;-1.40;99.90;;;;;;10386434;28;20058;-64
2022/02/12 23:53:51;;;;;;;64.53;25.33;;;-1.40;99.90;;;;;;10380030;28;20053;-65
2022/02/12 23:58:54;;;;;;;56.75;21.70;;;-1.50;99.90;;;;;;10389399;28;20479;-65
